Time;durP1;ratioP1;P1;durP2;ratioP2;P2;SDS_P1;SDS_P2;PMS_P1;PMS_P2;Temp;Humidity;BMP_temperature;BMP_pressure;BME280_temperature;BME280_humidity;BME280_pressure;Samples;Min_cycle;Max_cycle;Signal;HPM_P1;HPM_P2
2023/12/26 00:02:08;;;;;;;298.77;147.60;;;;;;;11.79;nan;99190.94;4886031;29;20084;-71
2023/12/26 00:04:38;;;;;;;295.48;146.40;;;;;;;11.85;nan;99187.53;4894494;29;20055;-71
2023/12/26 00:07:10;;;;;;;331.63;145.55;;;;;;;11.65;nan;99178.50;4890544;29;20150;-71
2023/12/26 00:09:40;;;;;;;351.13;149.52;;;;;;;11.60;nan;99184.34;4888978;29;20140;-71
2023/12/26 00:12:10;;;;;;;357.25;141.90;;;;;;;11.56;nan;99180.44;4892769;29;20059;-69
2023/12/26 00:14:39;;;;;;;481.20;143.65;;;;;;;11.48;nan;99185.88;4892524;29;20397;-71
2023/12/26 00:17:09;;;;;;;441.38;148.48;;;;;;;11.50;nan;99191.81;4891112;29;20044;-72
2023/12/26 00:19:38;;;;;;;380.80;145.05;;;;;;;11.50;nan;99186.50;4890181;29;20128;-71
2023/12/26 00:22:08;;;;;;;346.48;142.52;;;;;;;11.60;nan;99188.84;4884992;29;20071;-71
2023/12/26 00:24:37;;;;;;;432.10;145.15;;;;;;;11.61;nan;99185.19;4887883;29;20579;-71
2023/12/26 00:27:06;;;;;;;349.17;140.50;;;;;;;11.63;nan;99185.84;4886107;29;20044;-71
2023/12/26 00:29:36;;;;;;;376.75;150.15;;;;;;;11.56;nan;99185.75;4873669;29;20148;-71
2023/12/26 00:32:06;;;;;;;378.40;143.93;;;;;;;11.59;nan;99189.88;4881395;29;20053;-71
2023/12/26 00:34:35;;;;;;;421.75;143.93;;;;;;;11.57;nan;99187.41;4887461;29;20377;-70
2023/12/26 00:37:05;;;;;;;391.60;142.15;;;;;;;11.58;nan;99180.25;4886208;29;20045;-71
2023/12/26 00:39:34;;;;;;;429.92;141.98;;;;;;;11.55;nan;99193.91;4891404;29;20059;-71
2023/12/26 00:42:05;;;;;;;509.48;145.68;;;;;;;11.38;nan;99187.16;4903324;28;20051;-67
2023/12/26 00:44:36;;;;;;;446.40;146.73;;;;;;;11.40;nan;99193.94;4883584;29;20147;-68
2023/12/26 00:47:05;;;;;;;381.70;141.10;;;;;;;11.35;nan;99183.06;4889018;29;20053;-67
2023/12/26 00:49:35;;;;;;;495.23;144.80;;;;;;;11.29;nan;99186.44;4892680;29;20053;-67
2023/12/26 00:52:05;;;;;;;456.15;139.75;;;;;;;11.24;nan;99184.34;4891118;28;20067;-66
2023/12/26 00:54:36;;;;;;;466.23;139.10;;;;;;;11.17;nan;99187.91;4872151;29;20490;-68
2023/12/26 00:57:05;;;;;;;436.00;136.23;;;;;;;11.13;nan;99187.47;4887834;29;20052;-68
2023/12/26 00:59:35;;;;;;;392.10;138.50;;;;;;;11.23;nan;99184.53;4891637;29;20147;-68
2023/12/26 01:02:04;;;;;;;473.70;140.73;;;;;;;11.20;nan;99190.19;4896738;29;20044;-68
2023/12/26 01:04:34;;;;;;;450.35;138.60;;;;;;;11.05;nan;99187.56;4888372;29;20056;-68
2023/12/26 01:07:06;;;;;;;383.27;136.00;;;;;;;11.16;nan;99194.22;4889200;29;20041;-68
2023/12/26 01:09:35;;;;;;;355.83;137.05;;;;;;;11.14;nan;99189.13;4892076;29;20715;-68
2023/12/26 01:12:05;;;;;;;278.65;134.90;;;;;;;11.13;nan;99181.34;4904460;28;20056;-68
2023/12/26 01:14:35;;;;;;;390.02;134.38;;;;;;;10.98;nan;99189.28;4908515;28;20107;-68
2023/12/26 01:17:05;;;;;;;429.95;134.23;;;;;;;10.97;nan;99190.31;4891289;28;20167;-67
2023/12/26 01:19:34;;;;;;;402.77;135.05;;;;;;;11.00;nan;99199.72;4906159;29;20044;-68
2023/12/26 01:22:03;;;;;;;406.63;134.68;;;;;;;10.94;nan;99205.75;4892306;28;20059;-68
2023/12/26 01:24:33;;;;;;;300.13;130.82;;;;;;;10.97;nan;99208.03;4909853;29;20040;-67
2023/12/26 01:27:03;;;;;;;422.73;132.90;;;;;;;10.79;nan;99203.94;4899570;29;20048;-68
2023/12/26 01:29:32;;;;;;;316.33;129.60;;;;;;;10.90;nan;99210.59;4896121;29;20177;-68
2023/12/26 01:32:02;;;;;;;295.30;126.85;;;;;;;10.90;nan;99215.88;4897496;29;20052;-69
2023/12/26 01:34:31;;;;;;;321.38;129.60;;;;;;;10.87;nan;99213.59;4892316;29;20067;-67
2023/12/26 01:37:01;;;;;;;275.48;124.65;;;;;;;10.82;nan;99214.16;4892080;29;20143;-67
2023/12/26 01:39:32;;;;;;;298.63;126.53;;;;;;;10.96;nan;99217.00;4891934;29;20052;-67
2023/12/26 01:42:02;;;;;;;362.83;127.95;;;;;;;10.75;nan;99218.50;4886430;29;20056;-66
2023/12/26 01:44:31;;;;;;;301.45;127.43;;;;;;;10.76;nan;99227.28;4887185;29;20128;-67
2023/12/26 01:47:01;;;;;;;302.98;124.20;;;;;;;10.81;nan;99231.03;4889141;29;20140;-67
2023/12/26 01:49:31;;;;;;;350.77;127.40;;;;;;;10.58;nan;99232.91;4890514;29;20064;-67
2023/12/26 01:52:03;;;;;;;366.55;127.22;;;;;;;10.59;nan;99228.44;4893349;29;20432;-67
2023/12/26 01:54:36;;;;;;;315.42;121.70;;;;;;;10.67;nan;99229.19;4891594;29;20059;-67
2023/12/26 01:57:06;;;;;;;;;;;;;;;10.78;nan;99223.47;4889110;29;20048;-67
2023/12/26 01:59:38;;;;;;;318.70;120.07;;;;;;;10.66;nan;99232.03;4887977;29;20379;-67
2023/12/26 02:02:08;;;;;;;344.23;129.35;;;;;;;10.68;nan;99244.09;4892388;29;20151;-68
2023/12/26 02:04:38;;;;;;;369.30;129.93;;;;;;;10.66;nan;99234.69;4893477;29;20048;-67
2023/12/26 02:07:08;;;;;;;300.48;126.80;;;;;;;10.70;nan;99236.81;4894237;29;20051;-67
2023/12/26 02:09:38;;;;;;;329.35;129.43;;;;;;;10.60;nan;99233.56;4893734;29;20488;-68
2023/12/26 02:12:08;;;;;;;298.38;124.35;;;;;;;10.70;nan;99241.28;4891355;29;20067;-68
2023/12/26 02:14:38;;;;;;;361.10;126.63;;;;;;;10.55;nan;99248.34;4890417;29;20049;-68
2023/12/26 02:17:13;;;;;;;349.63;127.45;;;;;;;10.52;nan;99246.91;4889646;29;20063;-70
2023/12/26 02:19:43;;;;;;;358.42;131.85;;;;;;;10.60;nan;99249.47;4898281;29;20071;-69
2023/12/26 02:22:12;;;;;;;216.40;123.80;;;;;;;10.61;nan;99256.41;4893724;29;20448;-69
2023/12/26 02:24:43;;;;;;;291.23;126.85;;;;;;;10.63;nan;99250.91;4880785;29;20076;-69
2023/12/26 02:27:29;;;;;;;246.18;121.05;;;;;;;10.67;nan;99253.03;4874176;29;20056;-68
2023/12/26 02:30:01;;;;;;;327.95;124.78;;;;;;;10.59;nan;99266.34;4883358;28;20048;-69
2023/12/26 02:32:33;;;;;;;266.50;121.80;;;;;;;10.64;nan;99258.69;4884435;29;20048;-69
2023/12/26 02:35:05;;;;;;;372.48;123.65;;;;;;;10.51;nan;99260.31;4890892;29;20083;-69
2023/12/26 02:37:37;;;;;;;261.27;119.05;;;;;;;10.65;nan;99248.94;4870587;29;20500;-68
2023/12/26 02:40:08;;;;;;;322.43;124.70;;;;;;;10.54;nan;99259.94;4887933;29;20048;-70
2023/12/26 02:42:37;;;;;;;307.73;123.57;;;;;;;10.56;nan;99265.88;4890591;29;20049;-69
2023/12/26 02:45:08;;;;;;;267.75;123.00;;;;;;;10.51;nan;99268.25;4890687;28;20052;-71
2023/12/26 02:47:38;;;;;;;248.00;120.03;;;;;;;10.65;nan;99270.94;4874934;29;20489;-69
2023/12/26 02:50:08;;;;;;;186.05;116.15;;;;;;;10.65;nan;99281.53;4888458;29;20465;-70
2023/12/26 02:52:39;;;;;;;219.15;116.70;;;;;;;10.76;nan;99281.09;4890130;29;20056;-69
2023/12/26 02:55:09;;;;;;;181.50;114.32;;;;;;;10.71;nan;99282.66;4889554;29;20076;-69
2023/12/26 02:57:39;;;;;;;246.18;121.95;;;;;;;10.51;nan;99286.78;4888003;29;20152;-69
2023/12/26 03:00:09;;;;;;;271.95;114.38;;;;;;;10.40;nan;99285.38;4889228;29;20048;-69
2023/12/26 03:02:38;;;;;;;246.40;117.18;;;;;;;10.43;nan;99298.28;4891313;29;20599;-68
2023/12/26 03:05:08;;;;;;;231.68;118.22;;;;;;;10.49;nan;99302.84;4889352;29;20055;-70
2023/12/26 03:07:38;;;;;;;258.05;117.88;;;;;;;10.43;nan;99297.44;4890295;29;20119;-69
2023/12/26 03:10:09;;;;;;;275.83;119.80;;;;;;;10.40;nan;99311.84;4896733;29;20085;-69
2023/12/26 03:12:38;;;;;;;213.48;118.47;;;;;;;10.52;nan;99310.44;4890045;29;20752;-69
2023/12/26 03:15:08;;;;;;;303.85;119.55;;;;;;;10.52;nan;99322.88;4890603;29;20049;-69
2023/12/26 03:17:38;;;;;;;306.05;119.45;;;;;;;10.47;nan;99326.03;4899569;29;20044;-69
2023/12/26 03:20:08;;;;;;;290.13;117.88;;;;;;;10.47;nan;99326.03;4886893;28;20135;-69
2023/12/26 03:22:40;;;;;;;309.13;112.18;;;;;;;10.31;nan;99331.47;4896191;29;20060;-69
2023/12/26 03:25:09;;;;;;;237.00;112.82;;;;;;;10.40;nan;99337.53;4886167;29;20044;-69
2023/12/26 03:27:39;;;;;;;309.38;125.43;;;;;;;10.54;nan;99334.91;4889116;29;20044;-69
2023/12/26 03:30:09;;;;;;;362.17;129.75;;;;;;;10.64;nan;99339.97;4877292;29;20048;-69
2023/12/26 03:32:39;;;;;;;335.70;128.05;;;;;;;10.58;nan;99349.44;4891768;29;20413;-68
2023/12/26 03:35:10;;;;;;;350.10;136.20;;;;;;;10.76;nan;99351.81;4867612;29;20055;-69
2023/12/26 03:37:39;;;;;;;367.45;134.82;;;;;;;10.93;nan;99353.31;4887111;29;20057;-68
2023/12/26 03:40:09;;;;;;;392.35;145.32;;;;;;;10.97;nan;99359.09;4883384;29;20149;-69
2023/12/26 03:42:39;;;;;;;375.98;141.38;;;;;;;11.07;nan;99370.25;4887690;29;20127;-69
2023/12/26 03:45:09;;;;;;;423.55;144.88;;;;;;;11.01;nan;99365.69;4888228;29;20053;-69
2023/12/26 03:47:40;;;;;;;286.13;139.10;;;;;;;11.36;nan;99374.81;4890104;29;20054;-69
2023/12/26 03:50:10;;;;;;;358.80;145.25;;;;;;;11.29;nan;99377.34;4890480;28;20060;-67
2023/12/26 03:52:40;;;;;;;285.80;142.80;;;;;;;11.43;nan;99376.56;4893970;29;20144;-67
2023/12/26 03:55:11;;;;;;;331.13;145.60;;;;;;;11.47;nan;99377.00;4888452;29;20085;-67
2023/12/26 03:57:44;;;;;;;367.60;146.98;;;;;;;11.30;nan;99378.19;4888686;29;20547;-68
2023/12/26 04:00:15;;;;;;;400.35;149.68;;;;;;;11.39;nan;99391.19;4889150;28;20059;-68
2023/12/26 04:02:46;;;;;;;382.85;152.30;;;;;;;11.45;nan;99401.06;4892886;29;20056;-68
2023/12/26 04:05:16;;;;;;;386.65;152.30;;;;;;;11.51;nan;99400.34;4871918;29;20067;-68
2023/12/26 04:07:48;;;;;;;346.20;149.43;;;;;;;11.43;nan;99411.03;4891356;29;20058;-67
2023/12/26 04:10:18;;;;;;;295.17;149.65;;;;;;;11.61;nan;99408.88;4877331;29;20048;-68
2023/12/26 04:12:48;;;;;;;302.77;152.20;;;;;;;11.68;nan;99404.47;4887314;29;20140;-68
2023/12/26 04:15:18;;;;;;;349.17;160.23;;;;;;;11.81;nan;99397.75;4887325;29;20330;-68
2023/12/26 04:17:48;;;;;;;280.50;158.73;;;;;;;11.89;nan;99416.22;4887017;29;20060;-67
2023/12/26 04:20:18;;;;;;;286.60;159.63;;;;;;;12.22;nan;99425.44;4898055;28;20109;-68
2023/12/26 04:22:47;;;;;;;272.08;160.35;;;;;;;12.58;nan;99418.31;4875416;29;20053;-68
2023/12/26 04:25:18;;;;;;;270.73;156.70;;;;;;;12.79;nan;99433.47;4885395;29;20809;-68
2023/12/26 04:27:48;;;;;;;270.45;159.55;;;;;;;13.05;nan;99419.63;4887013;29;20500;-68
2023/12/26 04:30:18;;;;;;;244.75;149.95;;;;;;;13.58;nan;99428.06;4898234;28;20041;-68
2023/12/26 04:32:48;;;;;;;219.45;144.50;;;;;;;13.75;nan;99426.75;4895537;29;20044;-67
2023/12/26 04:35:17;;;;;;;229.73;148.35;;;;;;;14.11;nan;99443.38;4906662;28;20052;-68
2023/12/26 04:37:47;;;;;;;229.02;148.05;;;;;;;14.33;nan;99452.91;4905637;29;20063;-67
2023/12/26 04:40:17;;;;;;;183.55;127.82;;;;;;;14.83;nan;99440.16;4875057;28;20064;-68
2023/12/26 04:42:47;;;;;;;205.13;133.43;;;;;;;14.95;nan;99441.25;4896890;29;20056;-67
2023/12/26 04:45:16;;;;;;;183.63;129.10;;;;;;;15.02;nan;99443.91;4887076;29;20059;-67
2023/12/26 04:47:47;;;;;;;177.63;125.15;;;;;;;15.20;nan;99441.47;4888638;29;20773;-67
2023/12/26 04:50:17;;;;;;;129.88;99.65;;;;;;;15.01;nan;99443.06;4890607;28;20084;-67
2023/12/26 04:52:47;;;;;;;122.75;92.18;;;;;;;15.49;nan;99448.28;4906150;29;20400;-67
2023/12/26 04:55:17;;;;;;;126.78;93.05;;;;;;;15.38;nan;99449.69;4887838;29;20387;-67
2023/12/26 04:57:46;;;;;;;129.07;96.15;;;;;;;15.13;nan;99452.16;4887691;29;20052;-67
2023/12/26 05:00:16;;;;;;;123.88;95.55;;;;;;;15.45;nan;99455.03;4893774;28;20053;-67
2023/12/26 05:02:46;;;;;;;143.15;105.53;;;;;;;15.74;nan;99443.97;4896604;29;20092;-67
2023/12/26 05:05:15;;;;;;;147.25;105.90;;;;;;;15.74;nan;99449.31;4889480;29;20783;-67
2023/12/26 05:07:45;;;;;;;155.43;107.63;;;;;;;15.87;nan;99448.47;4890681;29;20132;-67
2023/12/26 05:10:16;;;;;;;151.95;107.72;;;;;;;15.47;nan;99456.47;4893011;29;20060;-67
2023/12/26 05:12:46;;;;;;;163.45;114.35;;;;;;;15.18;nan;99455.00;4872988;29;20060;-67
2023/12/26 05:15:16;;;;;;;168.90;114.10;;;;;;;15.55;nan;99448.28;4891159;29;20053;-69
2023/12/26 05:17:46;;;;;;;170.32;116.50;;;;;;;15.78;nan;99447.03;4892397;29;20147;-69
2023/12/26 05:20:16;;;;;;;164.90;114.63;;;;;;;15.67;nan;99448.47;4889075;29;20053;-69
2023/12/26 05:22:53;;;;;;;184.63;121.85;;;;;;;15.37;nan;99444.56;4882913;29;20048;-69
2023/12/26 05:25:24;;;;;;;182.25;120.18;;;;;;;15.66;nan;99438.84;4888061;29;20057;-68
2023/12/26 05:27:54;;;;;;;170.32;116.38;;;;;;;16.06;nan;99440.41;4891129;29;20072;-69
2023/12/26 05:30:24;;;;;;;168.30;116.28;;;;;;;16.21;nan;99436.66;4891375;29;20124;-68
2023/12/26 05:32:54;;;;;;;178.80;120.80;;;;;;;16.11;nan;99445.09;4892554;29;20108;-68
2023/12/26 05:35:25;;;;;;;172.63;119.45;;;;;;;16.25;nan;99436.03;4886730;29;20063;-70
2023/12/26 05:37:54;;;;;;;184.27;124.30;;;;;;;16.17;nan;99428.25;4888516;29;20052;-69
2023/12/26 05:40:24;;;;;;;182.82;122.75;;;;;;;16.22;nan;99430.28;4887946;29;20548;-69
2023/12/26 05:42:54;;;;;;;190.30;123.75;;;;;;;16.42;nan;99428.38;4892414;29;20079;-69
2023/12/26 05:45:25;;;;;;;188.90;127.10;;;;;;;16.14;nan;99424.16;4886825;29;20068;-69
2023/12/26 05:47:56;;;;;;;180.20;126.57;;;;;;;16.24;nan;99425.56;4885119;29;20057;-70
2023/12/26 05:50:26;;;;;;;208.30;133.25;;;;;;;16.14;nan;99428.69;4890531;29;20057;-69
2023/12/26 05:52:56;;;;;;;202.98;134.05;;;;;;;16.69;nan;99432.56;4887120;29;20049;-71
2023/12/26 05:55:26;;;;;;;189.00;131.77;;;;;;;16.87;nan;99424.66;4874994;29;20055;-71
2023/12/26 05:57:56;;;;;;;204.10;133.80;;;;;;;17.33;nan;99419.00;4890566;29;20048;-70
2023/12/26 06:00:26;;;;;;;192.65;132.07;;;;;;;17.34;nan;99422.47;4861318;29;20373;-71
2023/12/26 06:02:57;;;;;;;193.63;130.32;;;;;;;17.83;nan;99419.81;4882792;29;20489;-75
2023/12/26 06:05:27;;;;;;;200.48;138.30;;;;;;;17.68;nan;99418.50;4888960;29;20053;-76
2023/12/26 06:07:57;;;;;;;197.25;132.55;;;;;;;17.83;nan;99409.09;4889685;29;20813;-75
2023/12/26 06:10:28;;;;;;;211.80;138.07;;;;;;;17.76;nan;99397.59;4889321;29;20056;-73
2023/12/26 06:12:59;;;;;;;200.35;138.45;;;;;;;17.77;nan;99399.25;4892435;29;20784;-72
2023/12/26 06:15:28;;;;;;;205.00;138.07;;;;;;;17.51;nan;99394.94;4871443;29;20045;-71
2023/12/26 06:17:59;;;;;;;204.65;138.88;;;;;;;17.61;nan;99391.78;4888821;29;20070;-72
2023/12/26 06:20:29;;;;;;;206.65;139.85;;;;;;;17.65;nan;99390.31;4889247;29;20052;-75
2023/12/26 06:22:59;;;;;;;203.82;137.77;;;;;;;17.91;nan;99381.16;4891863;29;20048;-75
2023/12/26 06:25:28;;;;;;;198.57;136.68;;;;;;;17.87;nan;99378.13;4897920;29;20155;-76
2023/12/26 06:27:58;;;;;;;196.52;135.85;;;;;;;18.69;nan;99379.38;4870894;29;20052;-75
2023/12/26 06:30:28;;;;;;;195.50;134.02;;;;;;;19.11;nan;99379.38;4893898;29;20054;-76
2023/12/26 06:32:57;;;;;;;185.73;133.15;;;;;;;19.08;nan;99379.81;4892021;29;20132;-74
2023/12/26 06:35:27;;;;;;;188.73;133.32;;;;;;;19.39;nan;99376.81;4893761;29;20080;-76
2023/12/26 06:37:57;;;;;;;189.05;132.52;;;;;;;19.62;nan;99384.94;4875095;29;20055;-75
2023/12/26 06:40:27;;;;;;;184.75;131.15;;;;;;;19.80;nan;99392.03;4890028;29;20124;-75
2023/12/26 06:42:56;;;;;;;185.30;134.32;;;;;;;19.44;nan;99379.66;4890197;29;20737;-76
2023/12/26 06:45:27;;;;;;;192.85;132.75;;;;;;;19.56;nan;99385.06;4866047;29;20076;-76
2023/12/26 06:47:57;;;;;;;188.88;133.52;;;;;;;19.94;nan;99379.19;4882438;29;20121;-75
2023/12/26 06:50:28;;;;;;;179.52;130.93;;;;;;;19.88;nan;99380.94;4883441;29;20108;-75
2023/12/26 06:52:57;;;;;;;170.23;128.32;;;;;;;20.01;nan;99364.53;4894947;29;20060;-76
2023/12/26 06:55:27;;;;;;;174.23;127.50;;;;;;;19.98;nan;99366.88;4886921;29;20057;-76
2023/12/26 06:57:57;;;;;;;180.13;130.73;;;;;;;20.13;nan;99370.72;4885719;29;20052;-76
2023/12/26 07:00:27;;;;;;;166.15;122.75;;;;;;;20.38;nan;99377.69;4882737;29;20067;-77
2023/12/26 07:02:56;;;;;;;184.10;124.80;;;;;;;20.33;nan;99367.66;4884816;29;20069;-75
2023/12/26 07:05:27;;;;;;;181.13;125.95;;;;;;;20.46;nan;99358.47;4866003;29;20053;-75
2023/12/26 07:07:58;;;;;;;171.88;124.65;;;;;;;20.80;nan;99357.47;4872075;29;20200;-75
2023/12/26 07:10:28;;;;;;;188.70;126.93;;;;;;;20.70;nan;99351.94;4891198;29;20055;-75
2023/12/26 07:12:57;;;;;;;189.00;126.20;;;;;;;20.80;nan;99352.09;4893696;28;20488;-71
2023/12/26 07:15:28;;;;;;;188.50;129.75;;;;;;;20.93;nan;99351.00;4874309;29;20753;-75
2023/12/26 07:17:58;;;;;;;190.68;134.13;;;;;;;21.05;nan;99340.97;4886461;29;20059;-72
2023/12/26 07:20:28;;;;;;;181.65;130.85;;;;;;;21.01;nan;99346.03;4886803;29;20052;-73
2023/12/26 07:22:57;;;;;;;182.48;134.07;;;;;;;21.02;nan;99341.47;4890930;28;20083;-74
2023/12/26 07:25:27;;;;;;;178.13;129.77;;;;;;;21.00;nan;99340.88;4893770;29;20048;-74
2023/12/26 07:27:57;;;;;;;194.13;138.27;;;;;;;20.99;nan;99336.53;4888619;29;20052;-75
2023/12/26 07:30:26;;;;;;;187.88;135.60;;;;;;;20.94;nan;99345.34;4891619;28;20116;-73
2023/12/26 07:32:56;;;;;;;189.45;140.18;;;;;;;20.98;nan;99327.63;4892679;28;20059;-73
2023/12/26 07:35:28;;;;;;;192.60;142.23;;;;;;;20.95;nan;99321.94;4889936;28;20353;-74
2023/12/26 07:37:58;;;;;;;192.73;140.05;;;;;;;21.16;nan;99328.47;4882526;29;20105;-73
2023/12/26 07:40:28;;;;;;;237.25;152.60;;;;;;;21.08;nan;99325.13;4888188;29;20115;-74
2023/12/26 07:42:57;;;;;;;202.95;143.40;;;;;;;21.17;nan;99314.78;4887213;29;20044;-73
2023/12/26 07:45:27;;;;;;;217.82;153.77;;;;;;;21.23;nan;99319.19;4888684;29;20063;-74
2023/12/26 07:47:56;;;;;;;220.02;153.93;;;;;;;21.19;nan;99318.06;4887760;29;20430;-73
2023/12/26 07:50:26;;;;;;;219.57;151.63;;;;;;;21.11;nan;99307.63;4888940;29;20053;-74
2023/12/26 07:52:56;;;;;;;190.43;137.55;;;;;;;20.91;nan;99310.00;4896202;29;20143;-75
2023/12/26 07:55:25;;;;;;;181.75;134.48;;;;;;;20.73;nan;99297.59;4886227;29;20056;-73
2023/12/26 07:57:56;;;;;;;186.75;135.77;;;;;;;20.60;nan;99304.13;4887139;29;20048;-74
2023/12/26 08:00:25;;;;;;;180.52;131.63;;;;;;;20.57;nan;99301.91;4887879;29;20060;-74
2023/12/26 08:02:54;;;;;;;178.68;131.88;;;;;;;20.52;nan;99304.53;4894906;28;20746;-74
2023/12/26 08:05:24;;;;;;;177.57;130.40;;;;;;;20.50;nan;99305.81;4889899;29;20455;-73
2023/12/26 08:07:54;;;;;;;172.98;126.80;;;;;;;20.46;nan;99299.28;4886932;29;20068;-73
2023/12/26 08:10:25;;;;;;;170.70;130.73;;;;;;;20.48;nan;99292.59;4886022;29;20689;-74
2023/12/26 08:12:55;;;;;;;183.23;129.50;;;;;;;20.39;nan;99291.38;4883684;29;20045;-75
2023/12/26 08:15:24;;;;;;;179.90;131.05;;;;;;;20.11;nan;99288.63;4889054;28;20053;-74
2023/12/26 08:17:54;;;;;;;172.60;125.93;;;;;;;20.39;nan;99296.75;4870018;29;20061;-75
2023/12/26 08:20:23;;;;;;;177.18;127.35;;;;;;;20.47;nan;99290.97;4863837;29;20044;-74
2023/12/26 08:22:53;;;;;;;170.57;125.22;;;;;;;20.25;nan;99279.22;4882049;29;20048;-74
2023/12/26 08:25:23;;;;;;;162.63;125.03;;;;;;;20.16;nan;99278.78;4883314;29;20052;-74
2023/12/26 08:27:52;;;;;;;170.35;125.60;;;;;;;20.14;nan;99286.28;4884373;29;20361;-73
2023/12/26 08:30:22;;;;;;;176.27;128.65;;;;;;;20.19;nan;99281.00;4885233;29;20052;-75
2023/12/26 08:32:51;;;;;;;181.05;133.75;;;;;;;20.03;nan;99278.25;4890367;28;20059;-74
2023/12/26 08:35:22;;;;;;;179.38;131.23;;;;;;;20.26;nan;99270.09;4884132;29;20497;-77
2023/12/26 08:37:51;;;;;;;169.48;128.18;;;;;;;20.29;nan;99269.63;4878196;29;20172;-77
2023/12/26 08:40:22;;;;;;;178.93;129.45;;;;;;;20.30;nan;99259.72;4882918;29;20053;-74
2023/12/26 08:42:52;;;;;;;178.05;130.65;;;;;;;20.26;nan;99259.34;4885526;29;20056;-74
2023/12/26 08:45:22;;;;;;;183.48;130.85;;;;;;;20.46;nan;99254.34;4888191;29;20114;-74
2023/12/26 08:47:56;;;;;;;178.18;128.60;;;;;;;20.54;nan;99250.44;4884230;29;20473;-75
2023/12/26 08:50:26;;;;;;;190.82;135.35;;;;;;;20.47;nan;99249.78;4886697;29;20067;-74
2023/12/26 08:53:00;;;;;;;187.88;136.77;;;;;;;20.37;nan;99255.78;4887445;29;20624;-74
2023/12/26 08:55:30;;;;;;;174.98;130.00;;;;;;;20.33;nan;99256.53;4895390;29;20138;-76
2023/12/26 08:58:00;;;;;;;176.02;130.23;;;;;;;20.37;nan;99247.72;4905734;29;20052;-75
2023/12/26 09:00:29;;;;;;;165.82;128.35;;;;;;;20.38;nan;99259.31;4889381;29;20480;-75
2023/12/26 09:02:59;;;;;;;180.77;132.82;;;;;;;20.23;nan;99257.13;4897805;29;20048;-75
2023/12/26 09:05:35;;;;;;;183.65;134.63;;;;;;;20.20;nan;99257.59;4883648;29;20052;-76
2023/12/26 09:08:07;;;;;;;183.73;136.32;;;;;;;20.19;nan;99255.97;4886050;29;20562;-69
2023/12/26 09:10:37;;;;;;;186.17;138.33;;;;;;;20.35;nan;99259.81;4886376;29;20044;-69
2023/12/26 09:13:07;;;;;;;185.73;136.15;;;;;;;20.40;nan;99254.50;4885242;29;20436;-69
2023/12/26 09:15:36;;;;;;;186.52;135.20;;;;;;;20.48;nan;99257.63;4870103;29;20388;-68
2023/12/26 09:18:06;;;;;;;190.35;138.70;;;;;;;20.35;nan;99254.41;4888827;29;20048;-69
2023/12/26 09:20:36;;;;;;;185.68;136.73;;;;;;;20.32;nan;99261.09;4880017;29;20082;-70
2023/12/26 09:23:06;;;;;;;184.45;136.48;;;;;;;20.23;nan;99253.59;4877850;29;20045;-68
2023/12/26 09:25:35;;;;;;;185.13;137.65;;;;;;;20.24;nan;99255.25;4878223;29;20108;-69
2023/12/26 09:28:08;;;;;;;195.70;139.60;;;;;;;20.26;nan;99255.84;4886736;29;20084;-69
2023/12/26 09:30:38;;;;;;;199.02;140.90;;;;;;;20.24;nan;99258.75;4883880;29;20053;-67
2023/12/26 09:33:07;;;;;;;194.25;139.70;;;;;;;20.18;nan;99260.53;4880576;29;20071;-69
2023/12/26 09:35:37;;;;;;;195.40;138.80;;;;;;;20.23;nan;99249.03;4850816;29;20053;-70
2023/12/26 09:38:06;;;;;;;192.93;140.80;;;;;;;20.31;nan;99254.09;4857352;28;20096;-67
2023/12/26 09:40:37;;;;;;;189.50;139.40;;;;;;;20.25;nan;99252.31;4875109;29;20060;-70
2023/12/26 09:43:07;;;;;;;194.27;141.65;;;;;;;20.30;nan;99247.06;4872372;28;20532;-67
2023/12/26 09:45:37;;;;;;;192.77;139.63;;;;;;;20.29;nan;99249.97;4885207;29;20188;-70
2023/12/26 09:48:07;;;;;;;200.02;140.35;;;;;;;20.09;nan;99251.22;4884813;29;20564;-70
2023/12/26 09:50:37;;;;;;;191.80;140.52;;;;;;;20.16;nan;99251.09;4881597;28;20052;-70
2023/12/26 09:53:12;;;;;;;191.68;138.10;;;;;;;20.13;nan;99243.50;4883926;29;20187;-69
2023/12/26 09:55:42;;;;;;;190.80;136.25;;;;;;;20.13;nan;99243.50;4871395;29;20762;-69
2023/12/26 09:58:12;;;;;;;186.02;136.30;;;;;;;20.12;nan;99249.94;4888757;28;20063;-68
2023/12/26 10:00:44;;;;;;;189.23;137.68;;;;;;;20.07;nan;99245.28;4888029;29;20602;-67
2023/12/26 10:03:14;;;;;;;193.45;138.18;;;;;;;19.98;nan;99241.34;4885771;29;20181;-66
2023/12/26 10:05:43;;;;;;;183.63;133.98;;;;;;;20.00;nan;99241.09;4886369;29;20477;-67
2023/12/26 10:08:13;;;;;;;189.73;136.70;;;;;;;20.06;nan;99246.31;4884150;28;20112;-67
2023/12/26 10:10:43;;;;;;;187.07;131.43;;;;;;;19.89;nan;99242.78;4878564;29;20056;-71
2023/12/26 10:13:13;;;;;;;197.50;134.77;;;;;;;19.86;nan;99245.94;4889513;28;20163;-66
2023/12/26 10:15:42;;;;;;;188.38;133.32;;;;;;;19.82;nan;99252.84;4884485;29;20171;-65
2023/12/26 10:18:12;;;;;;;188.70;133.35;;;;;;;19.81;nan;99255.78;4884159;29;20059;-66
2023/12/26 10:20:42;;;;;;;184.43;133.45;;;;;;;19.70;nan;99255.56;4876788;28;20059;-66
2023/12/26 10:23:12;;;;;;;188.32;132.18;;;;;;;19.65;nan;99255.44;4885876;28;20055;-69
2023/12/26 10:25:43;;;;;;;174.60;128.60;;;;;;;19.69;nan;99256.59;4885266;29;20075;-68
2023/12/26 10:28:18;;;;;;;179.55;129.65;;;;;;;19.59;nan;99259.09;4884449;29;20075;-67
2023/12/26 10:30:48;;;;;;;183.82;130.13;;;;;;;19.53;nan;99254.66;4886310;29;20059;-68
2023/12/26 10:33:28;;;;;;;174.07;127.22;;;;;;;19.61;nan;99254.28;4886772;29;20063;-67
2023/12/26 10:36:05;;;;;;;171.95;126.13;;;;;;;19.53;nan;99240.41;4882582;29;20107;-68
2023/12/26 10:38:35;;;;;;;181.40;129.18;;;;;;;19.56;nan;99250.72;4887838;28;20139;-67
2023/12/26 10:41:18;;;;;;;180.52;128.77;;;;;;;19.54;nan;99250.94;4891075;28;20584;-68
2023/12/26 10:43:55;;;;;;;183.48;129.07;;;;;;;19.56;nan;99254.19;4868498;29;20365;-68
2023/12/26 10:46:27;;;;;;;180.95;129.07;;;;;;;19.55;nan;99247.19;4883369;28;20056;-68
2023/12/26 10:49:04;;;;;;;172.13;127.57;;;;;;;19.54;nan;99255.50;4882925;29;20512;-67
2023/12/26 10:51:37;;;;;;;184.93;132.13;;;;;;;19.37;nan;99254.56;4884878;29;20053;-68
2023/12/26 10:54:07;;;;;;;181.98;130.45;;;;;;;19.41;nan;99255.72;4898310;29;20048;-68
2023/12/26 10:56:39;;;;;;;185.73;129.88;;;;;;;19.35;nan;99257.47;4884605;29;20165;-70
2023/12/26 10:59:09;;;;;;;183.43;130.55;;;;;;;19.28;nan;99251.41;4883807;29;20049;-70
2023/12/26 13:52:18;;;;;;;163.98;114.50;;;;;;;16.29;nan;99314.28;5080733;28;20048;-67
2023/12/26 13:54:48;;;;;;;189.20;120.53;;;;;;;16.37;nan;99313.22;5079093;28;20695;-67
2023/12/26 13:57:54;;;;;;;177.35;119.47;;;;;;;16.24;nan;99315.97;5105043;27;20103;-68
2023/12/26 14:01:00;;;;;;;170.27;114.78;;;;;;;16.28;nan;99319.88;5111261;28;20096;-70
2023/12/26 14:03:31;;;;;;;172.45;118.20;;;;;;;16.22;nan;99320.72;5091063;28;20040;-65
2023/12/26 14:06:01;;;;;;;158.75;111.70;;;;;;;16.39;nan;99332.53;5109035;28;20217;-67
2023/12/26 14:09:07;;;;;;;172.15;116.18;;;;;;;16.38;nan;99331.72;5108841;28;20066;-68
2023/12/26 14:12:13;;;;;;;164.05;114.95;;;;;;;16.39;nan;99327.19;5110416;28;20043;-64
2023/12/26 14:14:42;;;;;;;167.10;113.57;;;;;;;16.36;nan;99328.44;5099151;28;20449;-66
2023/12/26 14:17:12;;;;;;;167.38;112.35;;;;;;;16.32;nan;99329.09;5111563;28;21535;-66
2023/12/26 14:19:41;;;;;;;160.55;114.07;;;;;;;16.31;nan;99338.13;5102163;28;20043;-68
2023/12/26 14:22:11;;;;;;;172.15;114.20;;;;;;;16.27;nan;99336.94;5109490;28;20067;-65
2023/12/26 14:25:17;;;;;;;175.85;116.80;;;;;;;16.26;nan;99343.28;5106147;28;20067;-67